Time;durP1;ratioP1;P1;durP2;ratioP2;P2;SDS_P1;SDS_P2;PMS_P1;PMS_P2;Temp;Humidity;BMP_temperature;BMP_pressure;BME280_temperature;BME280_humidity;BME280_pressure;Samples;Min_cycle;Max_cycle;Signal;HPM_P1;HPM_P2
2022/06/06 00:00:48;;;;;;;9.77;7.93;;;22.30;1.00;;;;;;5088983;27;21186;-76
2022/06/06 00:03:16;;;;;;;8.60;7.50;;;22.30;1.00;;;;;;5100453;27;20470;-76
2022/06/06 00:05:44;;;;;;;9.37;8.37;;;22.30;1.00;;;;;;5103607;27;20560;-76
2022/06/06 00:08:11;;;;;;;9.20;8.20;;;22.30;1.00;;;;;;5101414;27;20421;-76
2022/06/06 00:10:39;;;;;;;9.90;7.87;;;22.30;1.00;;;;;;5108573;27;20457;-76
2022/06/06 00:13:06;;;;;;;13.37;12.10;;;22.30;1.00;;;;;;5092697;27;21224;-76
2022/06/06 00:15:34;;;;;;;9.57;8.57;;;22.30;1.00;;;;;;5089706;28;20464;-75
2022/06/06 00:18:06;;;;;;;8.83;7.93;;;22.30;1.00;;;;;;5100858;27;21038;-76
2022/06/06 00:20:35;;;;;;;8.97;8.07;;;22.30;1.00;;;;;;5089056;27;20475;-75
2022/06/06 00:23:07;;;;;;;9.47;8.47;;;22.30;1.00;;;;;;5097478;27;20429;-75
2022/06/06 00:25:34;;;;;;;9.53;8.50;;;22.30;1.00;;;;;;5096393;27;20476;-74
2022/06/06 00:28:05;;;;;;;9.70;8.70;;;22.30;1.00;;;;;;5106385;27;20449;-77
2022/06/06 00:30:32;;;;;;;9.57;8.27;;;22.30;1.00;;;;;;5105031;27;20489;-76
2022/06/06 00:35:47;;;;;;;10.60;8.43;;;22.30;1.00;;;;;;5085023;27;20446;-76
2022/06/06 00:38:13;;;;;;;9.73;8.47;;;22.30;1.00;;;;;;5072804;27;20484;-75
2022/06/06 00:40:45;;;;;;;9.20;8.30;;;22.30;1.00;;;;;;5073164;27;20589;-74
2022/06/06 00:43:12;;;;;;;10.30;9.20;;;22.20;1.00;;;;;;5086030;27;20537;-73
2022/06/06 00:45:40;;;;;;;9.93;8.70;;;22.20;1.00;;;;;;5096239;27;20461;-73
2022/06/06 00:48:29;;;;;;;9.37;7.90;;;22.10;1.00;;;;;;5096797;27;20415;-75
2022/06/06 00:51:06;;;;;;;9.47;8.47;;;22.10;1.00;;;;;;5087353;27;20512;-74
2022/06/06 00:53:38;;;;;;;9.37;8.37;;;22.00;1.00;;;;;;5104555;27;20468;-73
2022/06/06 00:56:18;;;;;;;11.30;9.40;;;21.70;1.00;;;;;;5089024;27;20443;-74
2022/06/06 00:58:50;;;;;;;11.17;9.53;;;21.50;1.00;;;;;;5088016;27;20662;-75
2022/06/06 01:01:18;;;;;;;10.13;9.13;;;21.40;1.00;;;;;;5090612;27;20463;-73
2022/06/06 01:03:47;;;;;;;11.37;10.27;;;21.20;1.00;;;;;;5082021;27;20427;-76
2022/06/06 01:06:18;;;;;;;10.53;9.43;;;20.90;1.00;;;;;;5090128;27;20466;-75
2022/06/06 01:08:50;;;;;;;11.23;9.07;;;20.70;1.00;;;;;;5107902;27;20460;-75
2022/06/06 01:11:17;;;;;;;11.30;10.17;;;20.60;1.00;;;;;;5091269;27;20514;-74
2022/06/06 01:13:48;;;;;;;11.50;10.30;;;20.40;1.00;;;;;;5085520;27;20474;-73
2022/06/06 01:16:39;;;;;;;12.07;10.77;;;20.40;1.00;;;;;;5085921;27;20454;-72
2022/06/06 01:19:45;;;;;;;11.40;10.03;;;20.30;1.00;;;;;;5080443;28;20482;-74
2022/06/06 01:22:56;;;;;;;11.67;10.37;;;20.30;1.00;;;;;;5052891;27;20913;-73
2022/06/06 01:25:54;;;;;;;12.30;11.10;;;20.40;1.00;;;;;;5086670;27;20473;-75
2022/06/06 01:28:39;;;;;;;12.50;10.37;;;20.40;1.00;;;;;;5045797;27;20472;-74
2022/06/06 01:31:18;;;;;;;12.40;10.83;;;20.50;1.00;;;;;;5105731;27;20466;-75
2022/06/06 01:33:51;;;;;;;13.40;10.67;;;20.50;1.00;;;;;;5104649;27;20424;-75
2022/06/06 01:36:19;;;;;;;12.40;11.20;;;20.60;1.00;;;;;;5091428;27;21031;-74
2022/06/06 01:38:48;;;;;;;12.03;10.83;;;20.60;1.00;;;;;;5102835;27;20446;-75
2022/06/06 01:41:27;;;;;;;12.90;11.60;;;20.70;1.00;;;;;;5080943;27;20469;-75
2022/06/06 01:44:05;;;;;;;11.93;10.73;;;20.80;1.00;;;;;;5092202;27;20460;-75
2022/06/06 01:46:37;;;;;;;11.73;10.53;;;20.80;1.00;;;;;;5086362;27;20515;-74
2022/06/06 01:49:11;;;;;;;10.23;9.13;;;20.90;1.00;;;;;;5065522;27;20482;-72
2022/06/06 01:51:38;;;;;;;11.30;10.10;;;20.90;1.00;;;;;;5091287;27;20450;-74
2022/06/06 01:54:10;;;;;;;10.87;9.50;;;20.80;1.00;;;;;;5081993;27;20608;-74
2022/06/06 01:56:40;;;;;;;11.60;9.80;;;20.80;1.00;;;;;;5088896;27;20473;-74
2022/06/06 01:59:09;;;;;;;11.73;10.53;;;20.70;1.00;;;;;;5091018;27;20435;-75
2022/06/06 02:01:35;;;;;;;11.37;10.27;;;20.70;1.00;;;;;;5084430;28;20833;-73
2022/06/06 02:04:07;;;;;;;11.90;10.70;;;20.70;1.00;;;;;;5086540;27;20489;-73
2022/06/06 02:06:34;;;;;;;11.20;10.10;;;20.80;1.00;;;;;;5079202;28;20478;-75
2022/06/06 02:09:07;;;;;;;12.77;11.47;;;20.80;1.00;;;;;;5086179;28;20476;-74
2022/06/06 02:11:33;;;;;;;11.80;10.70;;;20.80;1.00;;;;;;5092154;27;20453;-75
2022/06/06 02:14:00;;;;;;;11.10;10.00;;;20.90;1.00;;;;;;5097581;27;20481;-73
2022/06/06 02:16:31;;;;;;;12.57;10.07;;;21.00;1.00;;;;;;5104063;27;20437;-74
2022/06/06 02:18:58;;;;;;;11.80;10.60;;;21.00;1.00;;;;;;5094193;27;21319;-77
2022/06/06 02:21:28;;;;;;;11.73;10.10;;;21.00;1.00;;;;;;5100997;27;20453;-76
2022/06/06 02:23:55;;;;;;;11.83;10.63;;;21.00;1.00;;;;;;5109265;27;20492;-74
2022/06/06 02:26:26;;;;;;;12.47;9.90;;;21.00;1.00;;;;;;5097998;27;20479;-73
2022/06/06 02:28:53;;;;;;;12.13;10.80;;;21.00;1.00;;;;;;5107990;27;21004;-74
2022/06/06 02:31:19;;;;;;;11.93;10.20;;;21.00;1.00;;;;;;5072964;27;20463;-74
2022/06/06 02:33:49;;;;;;;11.80;10.60;;;21.00;1.00;;;;;;5083538;28;20486;-74
2022/06/06 02:36:16;;;;;;;12.00;10.80;;;21.00;1.00;;;;;;5079278;28;20546;-75
2022/06/06 02:38:47;;;;;;;11.67;9.93;;;21.10;1.00;;;;;;5078370;28;20515;-73
2022/06/06 02:41:17;;;;;;;11.30;10.10;;;21.10;1.00;;;;;;5075079;28;20825;-75
2022/06/06 02:43:47;;;;;;;14.27;12.97;;;21.10;1.00;;;;;;5084094;28;20419;-75
2022/06/06 02:46:14;;;;;;;14.00;12.47;;;20.90;1.00;;;;;;5059090;28;20989;-76
2022/06/06 02:48:46;;;;;;;15.40;13.80;;;20.20;1.00;;;;;;5085525;28;20528;-75
2022/06/06 02:51:15;;;;;;;15.60;13.93;;;19.60;1.00;;;;;;5085731;28;20889;-73
2022/06/06 02:53:49;;;;;;;15.83;14.33;;;18.90;1.00;;;;;;5084022;28;20539;-74
2022/06/06 02:56:15;;;;;;;16.47;14.87;;;18.50;1.00;;;;;;5085580;28;20538;-75
2022/06/06 02:58:47;;;;;;;16.90;15.30;;;18.20;1.00;;;;;;5091600;28;20472;-74
2022/06/06 03:01:14;;;;;;;16.33;14.73;;;18.00;1.00;;;;;;5086814;28;20931;-76
2022/06/06 03:03:51;;;;;;;17.60;15.90;;;17.90;1.00;;;;;;5084915;28;20450;-75
2022/06/06 03:06:32;;;;;;;17.87;16.07;;;17.90;1.00;;;;;;5087007;28;20466;-73
2022/06/06 03:09:13;;;;;;;18.87;16.97;;;17.80;1.00;;;;;;5087679;28;20561;-75
2022/06/06 03:12:08;;;;;;;17.40;15.70;;;17.70;1.00;;;;;;5102844;27;20841;-74
2022/06/06 03:14:53;;;;;;;18.73;16.93;;;17.60;1.00;;;;;;5110552;27;20455;-73
2022/06/06 03:20:50;;;;;;;18.93;16.80;;;17.60;1.00;;;;;;5108508;27;20434;-75
2022/06/06 03:24:06;;;;;;;20.27;18.17;;;17.70;1.00;;;;;;5089344;27;20485;-76
2022/06/06 03:26:50;;;;;;;19.87;17.87;;;17.70;1.00;;;;;;5063794;27;20462;-74
2022/06/06 03:29:35;;;;;;;20.70;18.60;;;17.80;1.00;;;;;;5105519;27;20458;-76
2022/06/06 03:32:13;;;;;;;20.33;18.43;;;17.90;1.00;;;;;;5086148;27;20488;-75
2022/06/06 03:34:55;;;;;;;21.77;19.67;;;17.90;1.00;;;;;;5107394;27;20466;-75
2022/06/06 03:37:29;;;;;;;21.23;19.23;;;17.90;1.00;;;;;;5105290;27;20465;-76
2022/06/06 03:40:08;;;;;;;23.33;21.10;;;17.90;1.00;;;;;;5098873;27;20463;-74
2022/06/06 03:42:40;;;;;;;23.60;21.40;;;17.90;1.00;;;;;;5107996;27;21055;-75
2022/06/06 03:45:20;;;;;;;25.20;22.90;;;17.90;1.00;;;;;;5101049;27;20422;-76
2022/06/06 03:48:06;;;;;;;25.07;22.67;;;17.90;1.00;;;;;;5111287;27;20464;-75
2022/06/06 03:50:51;;;;;;;26.93;24.53;;;18.00;1.00;;;;;;5096950;27;20500;-75
2022/06/06 03:53:28;;;;;;;24.97;22.73;;;18.00;1.00;;;;;;5106181;27;20601;-75
2022/06/06 03:56:15;;;;;;;24.23;21.97;;;18.00;1.00;;;;;;5100763;27;20455;-75
2022/06/06 03:58:49;;;;;;;23.73;21.63;;;18.10;1.00;;;;;;5103653;27;20464;-75
2022/06/06 04:01:20;;;;;;;25.50;23.20;;;18.10;1.00;;;;;;5107751;27;20503;-75
2022/06/06 04:03:50;;;;;;;25.37;22.97;;;18.00;1.00;;;;;;5100121;27;20613;-73
2022/06/06 04:06:18;;;;;;;25.30;22.77;;;18.00;1.00;;;;;;5102156;27;20446;-74
2022/06/06 04:08:48;;;;;;;26.43;24.13;;;18.00;1.00;;;;;;5109931;27;20427;-75
2022/06/06 04:11:37;;;;;;;29.10;26.30;;;18.00;1.00;;;;;;5105582;27;20454;-73
2022/06/06 04:14:18;;;;;;;26.77;24.07;;;18.00;1.00;;;;;;5103175;27;20421;-74
2022/06/06 04:16:55;;;;;;;27.00;24.50;;;18.00;1.00;;;;;;5112083;27;20493;-74
2022/06/06 04:19:35;;;;;;;27.40;25.03;;;18.10;1.00;;;;;;5104779;27;20454;-75
2022/06/06 04:22:15;;;;;;;26.37;23.97;;;18.10;1.00;;;;;;5108640;27;20444;-76
2022/06/06 04:25:00;;;;;;;26.50;24.10;;;18.20;1.00;;;;;;5104277;27;20433;-74
2022/06/06 04:27:38;;;;;;;26.33;23.77;;;18.10;1.00;;;;;;5108909;27;20434;-75
2022/06/06 04:30:23;;;;;;;25.83;23.30;;;18.20;1.00;;;;;;5108565;27;20433;-75
2022/06/06 04:33:11;;;;;;;26.13;23.83;;;18.20;1.00;;;;;;5104520;27;20474;-74
2022/06/06 04:35:48;;;;;;;25.00;22.70;;;18.10;1.00;;;;;;5108229;27;21302;-75
2022/06/06 04:38:26;;;;;;;24.40;22.10;;;18.10;1.00;;;;;;5104909;27;20491;-77
2022/06/06 04:41:00;;;;;;;25.17;22.80;;;18.10;1.00;;;;;;5104824;27;20473;-75
2022/06/06 04:43:37;;;;;;;24.60;22.27;;;18.10;1.00;;;;;;5104292;27;20411;-74
2022/06/06 04:46:15;;;;;;;24.87;22.67;;;18.20;1.00;;;;;;5106136;27;20456;-75
2022/06/06 04:48:46;;;;;;;24.53;22.23;;;18.20;1.00;;;;;;5104221;27;20963;-73
2022/06/06 04:51:18;;;;;;;22.70;20.60;;;18.20;1.00;;;;;;5107659;27;20456;-75
2022/06/06 04:53:50;;;;;;;23.50;21.20;;;18.20;1.00;;;;;;5107488;27;20436;-74
2022/06/06 04:56:18;;;;;;;23.30;21.20;;;18.20;1.00;;;;;;5106602;27;20470;-75
2022/06/06 04:58:54;;;;;;;22.20;20.10;;;18.20;1.00;;;;;;5104395;27;20414;-74
2022/06/06 05:01:26;;;;;;;22.27;20.27;;;18.20;1.00;;;;;;5104292;27;20993;-76
2022/06/06 05:03:54;;;;;;;21.77;19.67;;;18.20;1.00;;;;;;5109110;27;20468;-76
2022/06/06 05:06:42;;;;;;;22.33;20.30;;;18.20;1.00;;;;;;5101328;27;20485;-75
2022/06/06 05:09:40;;;;;;;24.20;21.80;;;18.20;1.00;;;;;;5110052;27;20543;-75
2022/06/06 05:12:21;;;;;;;25.17;22.87;;;18.30;1.00;;;;;;5112337;27;20451;-75
2022/06/06 05:15:14;;;;;;;26.03;23.67;;;18.30;1.00;;;;;;5107611;27;20418;-75
2022/06/06 05:17:59;;;;;;;23.13;20.80;;;18.30;1.00;;;;;;5107526;27;20615;-74
2022/06/06 05:20:47;;;;;;;23.87;21.70;;;18.30;1.00;;;;;;5108556;27;21172;-75
2022/06/06 05:23:46;;;;;;;25.47;23.17;;;18.30;1.00;;;;;;5110098;27;20536;-75
2022/06/06 05:26:36;;;;;;;25.87;23.50;;;18.40;1.00;;;;;;5110286;27;20532;-75
2022/06/06 05:29:27;;;;;;;23.83;21.73;;;18.40;1.00;;;;;;5108392;27;20441;-75
2022/06/06 05:32:14;;;;;;;22.43;20.27;;;18.40;1.00;;;;;;5111746;27;20457;-74
2022/06/06 05:34:50;;;;;;;23.97;21.77;;;18.40;1.00;;;;;;5110524;27;20461;-75
2022/06/06 05:37:31;;;;;;;25.37;22.77;;;18.30;1.00;;;;;;5108399;27;20457;-75
2022/06/06 05:40:18;;;;;;;24.50;22.30;;;18.40;1.00;;;;;;5107500;27;20468;-75
2022/06/06 05:43:07;;;;;;;24.37;22.13;;;18.50;1.00;;;;;;5111478;27;20437;-75
2022/06/06 05:45:45;;;;;;;24.30;21.93;;;18.50;1.00;;;;;;5111327;27;20461;-74
2022/06/06 05:48:28;;;;;;;24.37;22.07;;;18.60;1.00;;;;;;5111079;27;20449;-74
2022/06/06 05:51:08;;;;;;;24.10;21.60;;;18.70;1.00;;;;;;5106923;27;20480;-76
2022/06/06 05:53:58;;;;;;;25.97;23.57;;;18.80;1.00;;;;;;5106754;27;20495;-74
2022/06/06 05:56:44;;;;;;;25.17;22.67;;;18.80;1.00;;;;;;5104203;27;20434;-74
2022/06/06 05:59:28;;;;;;;26.73;24.30;;;18.90;1.00;;;;;;5102166;27;20457;-74
2022/06/06 06:02:10;;;;;;;27.83;25.33;;;19.00;1.00;;;;;;5098005;27;20469;-74
2022/06/06 06:05:03;;;;;;;25.63;23.27;;;19.10;1.00;;;;;;5104848;27;20492;-75
2022/06/06 06:07:40;;;;;;;25.37;23.00;;;19.20;1.00;;;;;;5102017;27;20454;-75
2022/06/06 06:10:10;;;;;;;28.50;25.73;;;19.20;1.00;;;;;;5098966;27;20455;-74
2022/06/06 06:12:55;;;;;;;26.73;24.23;;;19.20;1.00;;;;;;5101195;27;20467;-76
2022/06/06 06:15:30;;;;;;;26.43;23.93;;;19.10;1.00;;;;;;5103396;27;20483;-74
2022/06/06 06:17:57;;;;;;;28.00;25.03;;;19.20;1.00;;;;;;5101818;27;20462;-74
2022/06/06 06:20:29;;;;;;;28.57;25.97;;;19.20;1.00;;;;;;5099629;27;20465;-74
2022/06/06 06:23:01;;;;;;;28.90;26.20;;;19.30;1.00;;;;;;5106073;27;20573;-75
2022/06/06 06:25:28;;;;;;;26.97;24.40;;;19.50;1.00;;;;;;5102501;27;20456;-75
2022/06/06 06:28:07;;;;;;;27.23;24.80;;;19.70;1.00;;;;;;5099282;27;20532;-74
2022/06/06 06:30:48;;;;;;;25.37;23.17;;;19.90;1.00;;;;;;5101478;27;20461;-75
2022/06/06 06:33:30;;;;;;;25.33;23.03;;;20.00;1.00;;;;;;5101544;27;20488;-74
2022/06/06 06:36:16;;;;;;;24.67;22.47;;;20.10;1.00;;;;;;5105739;27;20464;-75
2022/06/06 06:38:58;;;;;;;25.30;23.00;;;20.10;1.00;;;;;;5106458;27;20477;-76
2022/06/06 06:41:35;;;;;;;20.20;18.30;;;20.10;1.00;;;;;;5101881;27;20465;-74
2022/06/06 06:44:08;;;;;;;19.40;17.70;;;20.10;1.00;;;;;;5104238;27;20473;-74
2022/06/06 06:46:40;;;;;;;16.70;15.10;;;20.00;1.00;;;;;;5093511;27;20466;-75
2022/06/06 06:49:18;;;;;;;15.07;13.53;;;20.00;1.00;;;;;;5099017;27;20534;-76
2022/06/06 06:51:59;;;;;;;13.97;11.90;;;20.00;1.00;;;;;;5105534;27;20480;-74
2022/06/06 06:54:42;;;;;;;14.13;12.73;;;20.10;1.00;;;;;;5090412;27;20465;-75
2022/06/06 06:57:25;;;;;;;13.17;11.87;;;20.20;1.00;;;;;;5102839;27;20465;-76
2022/06/06 07:00:04;;;;;;;11.73;10.03;;;20.20;1.00;;;;;;5102044;27;20491;-74
2022/06/06 07:08:50;;;;;;;13.70;10.03;;;19.90;1.00;;;;;;5073375;27;20457;-73
2022/06/06 07:11:36;;;;;;;10.10;9.00;;;19.80;1.00;;;;;;5091442;27;20530;-73
2022/06/06 07:14:10;;;;;;;12.00;10.20;;;19.80;1.00;;;;;;5101330;27;20463;-74
2022/06/06 07:16:38;;;;;;;13.30;10.03;;;19.90;1.00;;;;;;5100499;27;20473;-75
2022/06/06 07:19:09;;;;;;;12.73;10.47;;;19.90;1.00;;;;;;5100058;27;20473;-75
2022/06/06 07:21:37;;;;;;;11.37;9.73;;;19.90;1.00;;;;;;5102626;27;20469;-73
2022/06/06 07:24:07;;;;;;;13.50;10.77;;;20.00;1.00;;;;;;5105455;27;20462;-74
2022/06/06 07:26:37;;;;;;;13.03;10.20;;;20.00;1.00;;;;;;5093199;27;21285;-74
2022/06/06 07:29:06;;;;;;;12.63;10.30;;;20.20;1.00;;;;;;5101948;27;20455;-74
2022/06/06 07:31:52;;;;;;;12.80;10.53;;;20.40;1.00;;;;;;5097617;27;20461;-75
2022/06/06 07:34:37;;;;;;;11.57;10.30;;;20.60;1.00;;;;;;5101725;27;21318;-75
2022/06/06 07:37:11;;;;;;;10.80;9.60;;;20.70;1.00;;;;;;5098711;27;20504;-77
2022/06/06 07:39:51;;;;;;;11.17;9.13;;;20.90;1.00;;;;;;5100566;27;20446;-75
2022/06/06 07:42:39;;;;;;;11.63;9.30;;;21.00;1.00;;;;;;5097593;27;21002;-73
2022/06/06 07:45:16;;;;;;;11.03;8.60;;;21.20;1.00;;;;;;5097305;27;20981;-74
2022/06/06 07:48:05;;;;;;;10.23;9.00;;;21.30;1.00;;;;;;5100585;27;20472;-75
2022/06/06 07:50:35;;;;;;;11.40;9.13;;;21.50;1.00;;;;;;5096219;27;20878;-75
2022/06/06 07:53:08;;;;;;;10.87;9.60;;;21.70;1.00;;;;;;5103765;27;20466;-75
2022/06/06 07:55:46;;;;;;;9.57;8.33;;;21.80;1.00;;;;;;5102732;27;20469;-76
2022/06/06 07:58:20;;;;;;;10.43;8.43;;;21.90;1.00;;;;;;5098096;27;20462;-74
2022/06/06 08:00:58;;;;;;;12.67;8.67;;;22.00;1.00;;;;;;5102226;27;20450;-75
2022/06/06 08:03:34;;;;;;;10.10;8.27;;;22.20;1.00;;;;;;5101216;27;20454;-75
2022/06/06 08:06:13;;;;;;;10.20;7.60;;;22.20;1.00;;;;;;5103521;27;21157;-74
2022/06/06 08:09:08;;;;;;;11.27;8.80;;;22.40;1.00;;;;;;5099765;27;20468;-74
2022/06/06 08:11:52;;;;;;;9.67;7.93;;;22.50;1.00;;;;;;5102889;27;20453;-74
2022/06/06 08:14:28;;;;;;;9.73;7.83;;;22.60;1.00;;;;;;5099224;27;20465;-73
2022/06/06 08:17:01;;;;;;;9.60;7.40;;;22.80;1.00;;;;;;5073721;27;20462;-74
2022/06/06 08:19:43;;;;;;;10.77;8.70;;;23.00;1.00;;;;;;5075758;28;20888;-74
2022/06/06 08:22:10;;;;;;;9.30;7.23;;;23.00;1.00;;;;;;5083407;28;20452;-74
2022/06/06 08:24:41;;;;;;;9.83;7.80;;;23.10;1.00;;;;;;5082499;28;20459;-76
2022/06/06 08:27:12;;;;;;;9.90;7.43;;;23.10;1.00;;;;;;5074802;28;20459;-76
2022/06/06 08:29:43;;;;;;;9.00;6.83;;;23.30;1.00;;;;;;5080384;28;20906;-75
2022/06/06 08:32:10;;;;;;;9.63;7.30;;;23.30;1.00;;;;;;5078533;28;20551;-75
2022/06/06 08:34:38;;;;;;;10.20;7.37;;;23.50;1.00;;;;;;5080637;28;20551;-74
2022/06/06 08:37:19;;;;;;;10.67;6.80;;;23.60;1.00;;;;;;5081873;28;20681;-75
2022/06/06 08:39:58;;;;;;;9.17;7.00;;;23.60;1.00;;;;;;5078572;28;23804;-76
2022/06/06 08:42:34;;;;;;;9.40;7.23;;;23.70;1.00;;;;;;5082781;28;20457;-75
2022/06/06 08:45:21;;;;;;;8.53;6.70;;;23.70;1.00;;;;;;5079257;28;20533;-75
2022/06/06 08:48:02;;;;;;;8.50;6.33;;;23.70;1.00;;;;;;5080346;28;20560;-75
2022/06/06 08:51:00;;;;;;;10.20;7.50;;;23.80;1.00;;;;;;5099941;27;20454;-74
2022/06/06 08:54:11;;;;;;;9.30;7.20;;;24.00;1.00;;;;;;5086736;27;20454;-75
2022/06/06 08:57:01;;;;;;;7.63;6.03;;;24.20;1.00;;;;;;5104712;27;20536;-74
2022/06/06 09:00:02;;;;;;;8.50;6.40;;;24.30;1.00;;;;;;5086871;27;20452;-75
2022/06/06 09:03:07;;;;;;;8.80;6.90;;;24.60;1.00;;;;;;5094198;27;20968;-75
2022/06/06 09:06:13;;;;;;;12.57;6.60;;;24.90;1.00;;;;;;5100922;27;20473;-73
2022/06/06 09:09:14;;;;;;;11.80;7.60;;;25.00;1.00;;;;;;5098280;27;20449;-76
2022/06/06 09:12:31;;;;;;;8.03;5.70;;;25.10;1.00;;;;;;5103264;27;20552;-76
2022/06/06 09:15:35;;;;;;;8.13;5.47;;;25.20;1.00;;;;;;5076422;27;20466;-74
2022/06/06 09:18:33;;;;;;;8.60;6.47;;;25.50;1.00;;;;;;5090143;27;20915;-76
2022/06/06 09:21:30;;;;;;;8.50;5.63;;;25.60;1.00;;;;;;5078398;28;20467;-73
2022/06/06 09:24:43;;;;;;;8.40;6.30;;;25.50;1.00;;;;;;5084900;27;20481;-74
2022/06/06 09:27:36;;;;;;;8.30;5.60;;;25.70;1.00;;;;;;5092054;27;20523;-76
2022/06/06 09:30:21;;;;;;;9.10;5.30;;;25.80;1.00;;;;;;5091050;27;20848;-77
2022/06/06 09:33:14;;;;;;;7.47;5.00;;;26.10;1.00;;;;;;5102805;27;20473;-76
2022/06/06 09:35:53;;;;;;;7.70;5.57;;;26.20;1.00;;;;;;5102005;27;20451;-75
2022/06/06 09:38:46;;;;;;;8.83;5.30;;;26.90;1.00;;;;;;5097827;27;20480;-75
2022/06/06 09:41:38;;;;;;;8.27;4.60;;;27.90;1.00;;;;;;5094139;27;20530;-76
2022/06/06 09:44:23;;;;;;;7.50;4.70;;;29.70;1.00;;;;;;5093712;27;20881;-75
2022/06/06 09:47:23;;;;;;;8.03;5.80;;;29.60;1.00;;;;;;5095020;27;20454;-76
2022/06/06 09:50:23;;;;;;;8.23;5.03;;;28.40;1.00;;;;;;5098745;27;20979;-75
2022/06/06 09:53:34;;;;;;;8.10;5.80;;;27.90;1.00;;;;;;5100260;27;20499;-75
2022/06/06 10:00:02;;;;;;;9.07;5.80;;;27.20;1.00;;;;;;5047220;28;20454;-76
2022/06/06 10:03:02;;;;;;;8.80;5.17;;;26.80;1.00;;;;;;5103405;27;20906;-77
2022/06/06 10:06:04;;;;;;;7.67;4.20;;;26.60;1.00;;;;;;5096100;27;20536;-75
2022/06/06 10:09:16;;;;;;;7.10;5.23;;;27.60;1.00;;;;;;5103288;27;20464;-76
2022/06/06 10:12:09;;;;;;;7.00;4.80;;;29.30;1.00;;;;;;5101341;27;20450;-80
2022/06/06 10:15:03;;;;;;;8.13;5.10;;;29.70;1.00;;;;;;5071424;27;21092;-76
2022/06/06 10:17:54;;;;;;;6.80;4.53;;;29.20;1.00;;;;;;5102820;27;20449;-74
2022/06/06 10:20:39;;;;;;;7.83;4.87;;;28.30;1.00;;;;;;5098078;27;20469;-76
2022/06/06 10:23:24;;;;;;;8.50;5.00;;;27.60;1.00;;;;;;5098384;27;20535;-76
2022/06/06 10:26:29;;;;;;;7.90;5.30;;;27.30;1.00;;;;;;5103614;27;21022;-76
2022/06/06 10:32:37;;;;;;;7.80;5.37;;;27.70;1.00;;;;;;5042717;28;20543;-75
2022/06/06 10:35:17;;;;;;;6.90;4.30;;;28.30;1.00;;;;;;5097569;27;20503;-77
2022/06/06 10:38:09;;;;;;;7.17;4.63;;;29.90;1.00;;;;;;5104326;27;20479;-78
2022/06/06 10:40:50;;;;;;;6.70;4.40;;;30.60;1.00;;;;;;5100991;27;20589;-78
2022/06/06 10:43:45;;;;;;;6.67;4.20;;;30.00;1.00;;;;;;5099783;27;20943;-77
2022/06/06 10:46:18;;;;;;;6.70;4.60;;;29.30;1.00;;;;;;5099159;27;20476;-74
2022/06/06 10:49:04;;;;;;;7.00;5.10;;;28.30;1.00;;;;;;5105252;27;20556;-75
2022/06/06 10:51:59;;;;;;;6.97;5.30;;;28.00;1.00;;;;;;5109265;27;20459;-77
2022/06/06 10:55:08;;;;;;;7.40;4.60;;;28.80;1.00;;;;;;5103903;27;20445;-75
2022/06/06 10:58:16;;;;;;;6.80;4.40;;;28.80;1.00;;;;;;5106096;27;20445;-79
2022/06/06 11:01:19;;;;;;;8.83;5.03;;;29.50;1.00;;;;;;5101800;27;20461;-75
2022/06/06 11:04:18;;;;;;;9.00;5.03;;;29.80;1.00;;;;;;5102983;27;20441;-78
2022/06/06 11:07:32;;;;;;;7.87;5.00;;;29.60;1.00;;;;;;5091035;27;20525;-76
2022/06/06 11:10:23;;;;;;;6.43;4.07;;;31.50;1.00;;;;;;5094392;27;20480;-76
2022/06/06 11:13:25;;;;;;;7.50;4.07;;;33.00;1.00;;;;;;5097437;27;20979;-77
2022/06/06 11:16:23;;;;;;;7.00;4.80;;;33.70;1.00;;;;;;5095502;27;20468;-74
2022/06/06 11:19:15;;;;;;;7.83;4.63;;;33.00;1.00;;;;;;5101664;27;20541;-76
2022/06/06 11:22:17;;;;;;;7.03;4.40;;;32.90;1.00;;;;;;5105072;27;20945;-76
2022/06/06 11:24:54;;;;;;;7.43;4.43;;;35.10;1.00;;;;;;5102441;27;20500;-76
2022/06/06 11:27:49;;;;;;;7.47;4.60;;;36.50;1.00;;;;;;5102531;27;20620;-77
2022/06/06 11:30:55;;;;;;;7.90;4.83;;;35.20;1.00;;;;;;5091550;27;20468;-75
2022/06/06 11:34:06;;;;;;;6.80;4.63;;;34.90;1.00;;;;;;5091987;27;20461;-76
2022/06/06 11:37:48;;;;;;;6.60;4.43;;;36.00;1.00;;;;;;5102011;27;20511;-76
2022/06/06 11:40:56;;;;;;;7.97;4.77;;;37.10;1.00;;;;;;5024272;28;20566;-76
2022/06/06 11:44:05;;;;;;;8.10;5.30;;;37.10;1.00;;;;;;5101530;27;20653;-76
2022/06/06 11:47:33;;;;;;;5.90;4.10;;;36.80;1.00;;;;;;5061363;27;20455;-77
2022/06/06 11:50:30;;;;;;;6.90;4.03;;;35.80;1.00;;;;;;5104484;27;20488;-75
2022/06/06 11:53:29;;;;;;;6.97;4.63;;;34.20;1.00;;;;;;5102050;27;20454;-77
2022/06/06 11:56:07;;;;;;;7.03;4.83;;;33.50;1.00;;;;;;5099179;27;20459;-76
2022/06/06 11:59:18;;;;;;;6.83;4.43;;;33.10;1.00;;;;;;5102127;27;20918;-75
2022/06/06 12:02:25;;;;;;;7.10;4.17;;;33.70;1.00;;;;;;5103860;27;20985;-75
2022/06/06 12:05:29;;;;;;;7.80;3.90;;;33.30;1.00;;;;;;5104218;27;20808;-75
2022/06/06 12:08:34;;;;;;;7.20;4.50;;;32.90;1.00;;;;;;5103601;27;20459;-74
2022/06/06 12:11:37;;;;;;;6.20;3.77;;;32.90;1.00;;;;;;5102973;27;20450;-78
2022/06/06 12:14:27;;;;;;;6.70;3.93;;;31.90;1.00;;;;;;5100731;27;20473;-77
2022/06/06 12:17:04;;;;;;;7.07;3.50;;;31.30;1.00;;;;;;5104962;27;20453;-78
2022/06/06 12:20:06;;;;;;;9.03;4.67;;;31.30;1.00;;;;;;5104291;27;20477;-76
2022/06/06 12:22:58;;;;;;;6.53;4.00;;;32.10;1.00;;;;;;5106889;27;20445;-76
2022/06/06 12:25:51;;;;;;;6.00;3.40;;;32.80;1.00;;;;;;5106003;27;20905;-76
2022/06/06 12:28:51;;;;;;;7.70;3.70;;;33.40;1.00;;;;;;5104340;27;20461;-76
2022/06/06 12:31:54;;;;;;;7.00;4.90;;;34.40;1.00;;;;;;5101945;27;20799;-75
2022/06/06 12:34:27;;;;;;;6.93;3.93;;;34.10;1.00;;;;;;5061571;27;20461;-76
2022/06/06 12:37:01;;;;;;;8.53;4.17;;;33.20;1.00;;;;;;5107857;27;20596;-77
2022/06/06 12:39:46;;;;;;;6.80;3.60;;;32.20;1.00;;;;;;5104364;27;20454;-77
2022/06/06 12:42:24;;;;;;;7.30;4.10;;;31.40;1.00;;;;;;5099016;27;20458;-76
2022/06/06 12:45:33;;;;;;;6.90;3.60;;;30.50;1.00;;;;;;5101590;27;20465;-78
2022/06/06 12:48:29;;;;;;;8.93;4.20;;;29.70;1.00;;;;;;5104987;27;20570;-77
2022/06/06 12:51:06;;;;;;;7.90;4.60;;;28.80;1.00;;;;;;5098791;27;20527;-76
2022/06/06 12:54:15;;;;;;;8.17;4.13;;;28.20;1.00;;;;;;5103112;27;20560;-76
2022/06/06 12:56:54;;;;;;;7.70;4.13;;;28.00;1.00;;;;;;5102350;27;20433;-76
2022/06/06 12:59:48;;;;;;;8.23;4.60;;;28.10;1.00;;;;;;5105707;27;20920;-74
2022/06/06 13:02:32;;;;;;;6.83;3.73;;;28.20;1.00;;;;;;5104314;27;20466;-75
2022/06/06 13:05:09;;;;;;;7.83;3.90;;;28.00;1.00;;;;;;5104490;27;20458;-78
2022/06/06 13:07:59;;;;;;;7.10;3.63;;;27.80;1.00;;;;;;5100154;27;20457;-76
2022/06/06 13:10:42;;;;;;;7.53;4.10;;;27.80;1.00;;;;;;5097063;27;20489;-75
2022/06/06 13:13:31;;;;;;;7.80;4.33;;;27.80;1.00;;;;;;5099008;27;20906;-75
2022/06/06 13:16:03;;;;;;;7.27;4.40;;;27.80;1.00;;;;;;5097403;27;20458;-75
2022/06/06 13:18:56;;;;;;;8.80;4.60;;;27.80;1.00;;;;;;5108934;27;20415;-75
2022/06/06 13:21:35;;;;;;;7.10;4.00;;;27.80;1.00;;;;;;5101192;27;20752;-75
2022/06/06 13:24:46;;;;;;;7.80;3.80;;;29.40;1.00;;;;;;5102901;27;20480;-76
2022/06/06 13:27:19;;;;;;;6.80;3.90;;;32.80;1.00;;;;;;5097073;27;20544;-76
2022/06/06 13:29:47;;;;;;;6.10;3.60;;;35.80;1.00;;;;;;5103010;27;20422;-78
2022/06/06 13:32:27;;;;;;;6.50;3.57;;;37.40;1.00;;;;;;5103054;27;20533;-77
2022/06/06 13:35:07;;;;;;;6.60;4.07;;;37.70;1.00;;;;;;5109207;27;20465;-78
2022/06/06 13:37:51;;;;;;;7.53;4.17;;;37.10;1.00;;;;;;5106488;27;20450;-77
2022/06/06 13:40:31;;;;;;;7.50;3.83;;;36.30;1.00;;;;;;5103459;27;20468;-76
2022/06/06 13:43:15;;;;;;;6.37;4.10;;;35.70;1.00;;;;;;5100517;27;20501;-78
2022/06/06 13:45:50;;;;;;;6.63;3.43;;;36.30;1.00;;;;;;5088068;28;20439;-76
2022/06/06 13:48:45;;;;;;;6.57;4.13;;;37.10;1.00;;;;;;5085748;28;20552;-74
2022/06/06 13:51:25;;;;;;;6.30;3.80;;;36.90;1.00;;;;;;5088585;28;20447;-75
2022/06/06 13:54:04;;;;;;;5.90;3.53;;;36.50;1.00;;;;;;5088331;28;20469;-74
2022/06/06 13:56:49;;;;;;;7.60;3.87;;;35.80;1.00;;;;;;5092670;27;20575;-74
2022/06/06 13:59:34;;;;;;;6.87;4.00;;;34.70;1.00;;;;;;5104339;27;20548;-76
2022/06/06 14:02:11;;;;;;;7.10;3.53;;;33.20;1.00;;;;;;5085335;28;20442;-76
2022/06/06 14:05:20;;;;;;;7.23;3.83;;;31.90;1.00;;;;;;5083809;28;20563;-74
2022/06/06 14:08:05;;;;;;;7.23;4.20;;;31.00;1.00;;;;;;5108294;27;20447;-75
2022/06/06 14:10:51;;;;;;;6.57;3.97;;;30.40;1.00;;;;;;5106780;27;20455;-76
2022/06/06 14:13:28;;;;;;;6.80;3.80;;;30.60;1.00;;;;;;5106465;27;20457;-76
2022/06/06 14:15:57;;;;;;;6.40;3.73;;;32.40;1.00;;;;;;5107822;27;20460;-75
2022/06/06 14:18:29;;;;;;;7.00;3.97;;;34.20;1.00;;;;;;5101045;27;20453;-77
2022/06/06 14:20:57;;;;;;;6.93;3.53;;;36.10;1.00;;;;;;5105701;27;20465;-77
2022/06/06 14:23:26;;;;;;;5.73;3.67;;;36.20;1.00;;;;;;5101798;27;20944;-79
2022/06/06 14:25:57;;;;;;;6.03;3.43;;;35.30;1.00;;;;;;5103435;27;20468;-75